createdAt,value
2018-08-22T00:00:08.503Z,20.30
2018-08-22T00:02:36.824Z,20.27
2018-08-22T00:05:05.868Z,20.27
2018-08-22T00:07:34.450Z,20.23
2018-08-22T00:10:02.812Z,20.21
2018-08-22T00:12:31.153Z,20.19
2018-08-22T00:14:59.498Z,20.20
2018-08-22T00:17:27.821Z,20.22
2018-08-22T00:19:56.131Z,20.24
2018-08-22T00:22:24.477Z,20.23
2018-08-22T00:24:52.917Z,20.23
2018-08-22T00:27:21.244Z,20.20
2018-08-22T00:29:49.883Z,20.20
2018-08-22T00:32:18.228Z,20.16
2018-08-22T00:34:46.554Z,20.14
2018-08-22T00:37:14.946Z,20.16
2018-08-22T00:39:43.325Z,20.15
2018-08-22T00:42:11.669Z,20.12
2018-08-22T00:44:40.007Z,20.07
2018-08-22T00:47:08.389Z,20.08
2018-08-22T00:49:36.843Z,20.07
2018-08-22T00:52:05.172Z,20.06
2018-08-22T00:54:33.704Z,20.06
2018-08-22T00:57:02.114Z,20.05
2018-08-22T00:59:30.476Z,20.05
2018-08-22T01:01:58.790Z,20.00
2018-08-22T01:04:27.150Z,19.96
2018-08-22T01:06:55.529Z,19.96
2018-08-22T01:09:23.896Z,19.96
2018-08-22T01:11:52.229Z,19.94
2018-08-22T01:14:20.604Z,19.91
2018-08-22T01:16:49.048Z,19.90
2018-08-22T01:19:17.387Z,19.88
2018-08-22T01:21:45.756Z,19.88
2018-08-22T01:24:14.102Z,19.89
2018-08-22T01:26:42.508Z,19.89
2018-08-22T01:29:10.888Z,19.87
2018-08-22T01:31:39.230Z,19.86
2018-08-22T01:34:07.627Z,19.84
2018-08-22T01:36:36.010Z,19.83
2018-08-22T01:39:06.288Z,19.80
2018-08-22T01:41:34.688Z,19.80
2018-08-22T01:44:03.032Z,19.77
2018-08-22T01:46:31.448Z,19.76
2018-08-22T01:48:59.784Z,19.77
2018-08-22T01:51:28.140Z,19.74
2018-08-22T01:53:56.458Z,19.72
2018-08-22T01:56:24.787Z,19.69
2018-08-22T01:58:53.182Z,19.67
2018-08-22T02:01:21.497Z,19.67
2018-08-22T02:03:50.065Z,19.70
2018-08-22T02:06:18.478Z,19.70
2018-08-22T02:08:46.934Z,19.69
2018-08-22T02:11:15.256Z,19.66
2018-08-22T02:13:43.591Z,19.66
2018-08-22T02:16:11.916Z,19.67
2018-08-22T02:18:40.268Z,19.65
2018-08-22T02:21:08.626Z,19.64
2018-08-22T02:23:36.998Z,19.60
2018-08-22T02:26:05.593Z,19.58
2018-08-22T02:28:34.065Z,19.57
2018-08-22T02:31:02.456Z,19.57
2018-08-22T02:33:30.828Z,19.58
2018-08-22T02:35:59.172Z,19.56
2018-08-22T02:38:27.614Z,19.53
2018-08-22T02:40:57.416Z,19.51
2018-08-22T02:43:26.220Z,19.44
2018-08-22T02:45:54.561Z,19.42
2018-08-22T02:48:22.877Z,19.41
2018-08-22T02:50:51.250Z,19.41
2018-08-22T02:53:19.760Z,19.40
2018-08-22T02:55:48.110Z,19.41
2018-08-22T02:58:16.661Z,19.41
2018-08-22T03:00:44.996Z,19.43
2018-08-22T03:03:13.349Z,19.45
2018-08-22T03:05:41.709Z,19.44
2018-08-22T03:08:10.057Z,19.43
2018-08-22T03:10:38.444Z,19.41
2018-08-22T03:13:06.917Z,19.42
2018-08-22T03:15:35.271Z,19.42
2018-08-22T03:18:03.701Z,19.42
2018-08-22T03:20:32.077Z,19.37
2018-08-22T03:23:00.652Z,19.30
2018-08-22T03:25:29.007Z,19.27
2018-08-22T03:27:57.380Z,19.26
2018-08-22T03:30:25.728Z,19.25
2018-08-22T03:32:54.117Z,19.24
2018-08-22T03:35:22.615Z,19.24
2018-08-22T03:37:50.956Z,19.24
2018-08-22T03:40:19.599Z,19.23
2018-08-22T03:42:47.972Z,19.20
2018-08-22T03:45:16.284Z,19.20
2018-08-22T03:47:44.667Z,19.17
2018-08-22T03:50:13.007Z,19.12
2018-08-22T03:52:41.330Z,19.07
2018-08-22T03:55:09.707Z,19.01
2018-08-22T03:57:38.495Z,19.00
2018-08-22T04:00:06.976Z,18.97
2018-08-22T04:02:35.577Z,18.98
2018-08-22T04:05:04.020Z,18.98
2018-08-22T04:07:32.425Z,19.00
2018-08-22T04:10:01.027Z,19.02
2018-08-22T04:12:29.726Z,19.02
2018-08-22T04:14:58.041Z,19.00
2018-08-22T04:17:30.036Z,19.01
2018-08-22T04:19:58.458Z,19.03
2018-08-22T04:22:26.862Z,19.02
2018-08-22T04:24:55.220Z,19.04
2018-08-22T04:27:23.571Z,19.06
2018-08-22T04:29:51.903Z,19.06
2018-08-22T04:32:20.233Z,19.07
2018-08-22T04:34:48.539Z,19.07
2018-08-22T04:37:17.309Z,19.05
2018-08-22T04:39:45.624Z,19.05
2018-08-22T04:42:13.973Z,19.04
2018-08-22T04:44:42.488Z,19.05
2018-08-22T04:47:10.856Z,19.09
2018-08-22T04:49:39.182Z,19.12
2018-08-22T04:52:07.564Z,19.14
2018-08-22T04:54:35.903Z,19.14
2018-08-22T04:57:04.236Z,19.17
2018-08-22T04:59:35.636Z,19.18
2018-08-22T05:02:04.026Z,19.22
2018-08-22T05:04:32.355Z,19.27
2018-08-22T05:07:00.698Z,19.30
2018-08-22T05:09:29.065Z,19.32
2018-08-22T05:11:57.399Z,19.34
2018-08-22T05:14:25.721Z,19.36
2018-08-22T05:16:54.045Z,19.40
2018-08-22T05:19:22.537Z,19.42
2018-08-22T05:21:50.874Z,19.44
2018-08-22T05:24:19.223Z,19.47
2018-08-22T05:26:47.560Z,19.51
2018-08-22T05:29:15.987Z,19.52
2018-08-22T05:31:44.416Z,19.52
2018-08-22T05:34:12.751Z,19.50
2018-08-22T05:36:41.130Z,19.47
2018-08-22T05:39:11.417Z,19.46
2018-08-22T05:41:39.791Z,19.46
2018-08-22T05:44:08.129Z,19.49
2018-08-22T05:46:36.495Z,19.50
2018-08-22T05:49:04.974Z,19.51
2018-08-22T05:51:33.228Z,19.53
2018-08-22T05:54:01.589Z,19.55
2018-08-22T05:56:29.928Z,19.61
2018-08-22T05:58:58.265Z,19.65
2018-08-22T06:01:26.649Z,19.68
2018-08-22T06:03:54.995Z,19.73
2018-08-22T06:06:23.495Z,19.83
2018-08-22T06:08:51.919Z,19.95
2018-08-22T06:11:20.252Z,20.05
2018-08-22T06:13:48.733Z,20.17
2018-08-22T06:16:17.068Z,20.25
2018-08-22T06:18:45.508Z,20.36
2018-08-22T06:21:13.825Z,20.44
2018-08-22T06:23:42.236Z,20.46
2018-08-22T06:26:10.615Z,20.50
2018-08-22T06:28:39.021Z,20.57
2018-08-22T06:31:07.334Z,20.74
2018-08-22T06:33:35.656Z,20.92
2018-08-22T06:36:04.004Z,21.08
2018-08-22T06:38:32.326Z,21.26
2018-08-22T06:41:00.679Z,21.34
2018-08-22T06:43:29.024Z,21.41
2018-08-22T06:45:57.416Z,21.47
2018-08-22T06:48:26.030Z,21.51
2018-08-22T06:50:54.372Z,21.65
2018-08-22T06:53:22.738Z,21.70
2018-08-22T06:55:51.121Z,21.74
2018-08-22T06:58:19.487Z,21.75
2018-08-22T07:00:47.941Z,21.76
2018-08-22T07:03:16.324Z,21.80
2018-08-22T07:05:44.675Z,21.89
2018-08-22T07:08:13.103Z,21.95
2018-08-22T07:10:41.477Z,22.02
2018-08-22T07:13:09.807Z,22.12
2018-08-22T07:15:38.153Z,22.21
2018-08-22T07:18:06.560Z,22.33
2018-08-22T07:20:35.041Z,22.53
2018-08-22T07:23:03.375Z,22.62
2018-08-22T07:25:31.723Z,22.69
2018-08-22T07:28:00.079Z,22.70
2018-08-22T07:30:28.490Z,22.79
2018-08-22T07:32:56.817Z,22.93
2018-08-22T07:35:25.236Z,23.05
2018-08-22T07:37:53.620Z,23.08
2018-08-22T07:40:22.005Z,23.11
2018-08-22T07:42:50.338Z,23.04
2018-08-22T07:45:18.693Z,23.00
2018-08-22T07:47:47.069Z,22.99
2018-08-22T07:50:15.476Z,22.99
2018-08-22T07:52:54.324Z,23.06
2018-08-22T07:55:22.816Z,23.15
2018-08-22T07:57:51.137Z,23.19
2018-08-22T08:00:19.502Z,23.21
2018-08-22T08:02:47.844Z,23.26
2018-08-22T08:05:16.268Z,23.33
2018-08-22T08:07:44.600Z,23.44
2018-08-22T08:10:17.127Z,23.51
2018-08-22T08:12:45.779Z,23.58
2018-08-22T08:15:15.115Z,23.63
2018-08-22T08:17:43.644Z,23.69
2018-08-22T08:20:12.021Z,23.76
2018-08-22T08:22:40.370Z,23.84
2018-08-22T08:25:08.718Z,23.92
2018-08-22T08:27:37.063Z,23.95
2018-08-22T08:30:06.616Z,24.00
2018-08-22T08:32:34.955Z,24.08
2018-08-22T08:35:03.332Z,24.16
2018-08-22T08:37:31.830Z,24.25
2018-08-22T08:40:00.305Z,24.35
2018-08-22T08:42:28.666Z,24.43
2018-08-22T08:44:57.041Z,24.45
2018-08-22T08:47:25.829Z,24.46
2018-08-22T08:49:54.512Z,24.45
2018-08-22T08:52:22.899Z,24.47
2018-08-22T08:54:53.712Z,24.54
2018-08-22T08:57:22.157Z,24.62
2018-08-22T08:59:50.495Z,24.71
2018-08-22T09:02:18.847Z,24.81
2018-08-22T09:04:47.177Z,24.86
2018-08-22T09:07:15.603Z,24.92
2018-08-22T09:09:43.992Z,25.01
2018-08-22T09:12:12.337Z,25.11
2018-08-22T09:14:40.753Z,25.18
2018-08-22T09:17:09.058Z,25.23
2018-08-22T09:19:37.448Z,25.26
2018-08-22T09:22:05.845Z,25.24
2018-08-22T09:24:34.197Z,25.22
2018-08-22T09:27:02.526Z,25.26
2018-08-22T09:29:30.917Z,25.31
2018-08-22T09:31:59.263Z,25.36
2018-08-22T09:34:27.616Z,25.48
2018-08-22T09:36:55.975Z,25.52
2018-08-22T09:39:24.412Z,25.59
2018-08-22T09:41:52.744Z,25.63
2018-08-22T09:44:21.121Z,25.64
2018-08-22T09:46:49.547Z,25.71
2018-08-22T09:49:17.831Z,25.75
2018-08-22T09:51:46.183Z,25.75
2018-08-22T09:54:14.556Z,25.75
2018-08-22T09:56:42.891Z,25.73
2018-08-22T09:59:11.351Z,25.75
2018-08-22T10:01:41.765Z,25.73
2018-08-22T10:04:10.188Z,25.77
2018-08-22T10:06:44.933Z,25.88
2018-08-22T10:09:19.254Z,26.00
2018-08-22T10:11:47.600Z,26.09
2018-08-22T10:14:15.975Z,26.12
2018-08-22T10:16:44.396Z,26.17
2018-08-22T10:19:12.752Z,26.22
2018-08-22T10:21:41.095Z,26.31
2018-08-22T10:24:09.429Z,26.30
2018-08-22T10:26:37.869Z,26.29
2018-08-22T10:29:06.246Z,26.30
2018-08-22T10:31:34.587Z,26.28
2018-08-22T10:34:02.928Z,26.27
2018-08-22T10:36:31.336Z,26.33
2018-08-22T10:38:59.660Z,26.43
2018-08-22T10:41:27.976Z,26.43
2018-08-22T10:43:56.313Z,26.49
2018-08-22T10:46:24.677Z,26.60
2018-08-22T10:48:53.002Z,26.70
2018-08-22T10:51:21.384Z,26.80
2018-08-22T10:53:49.726Z,26.89
2018-08-22T10:56:18.050Z,26.96
2018-08-22T10:58:46.388Z,27.06
2018-08-22T11:01:14.760Z,27.15
2018-08-22T11:03:43.164Z,27.18
2018-08-22T11:06:11.542Z,27.23
2018-08-22T11:08:39.936Z,27.20
2018-08-22T11:11:08.292Z,27.21
2018-08-22T11:13:36.605Z,27.24
2018-08-22T11:16:05.070Z,27.31
2018-08-22T11:18:33.385Z,27.40
2018-08-22T11:21:13.031Z,27.41
2018-08-22T11:23:52.803Z,27.43
2018-08-22T11:26:32.388Z,27.45
2018-08-22T11:29:11.981Z,27.53
2018-08-22T11:31:51.724Z,27.50
2018-08-22T11:34:31.514Z,27.53
2018-08-22T11:37:06.969Z,27.56
2018-08-22T11:39:35.345Z,27.54
2018-08-22T11:42:04.351Z,27.54
2018-08-22T11:44:32.712Z,27.50
2018-08-22T11:47:01.227Z,27.56
2018-08-22T11:49:30.369Z,27.55
2018-08-22T11:51:59.005Z,27.55
2018-08-22T11:54:27.493Z,27.57
2018-08-22T11:56:55.825Z,27.57
2018-08-22T11:59:24.171Z,27.54
2018-08-22T12:01:52.515Z,27.54
2018-08-22T12:04:21.421Z,27.51
2018-08-22T12:06:50.009Z,27.47
2018-08-22T12:09:18.730Z,27.50
2018-08-22T12:11:47.061Z,27.53
2018-08-22T12:14:15.375Z,27.60
2018-08-22T12:16:43.697Z,27.68
2018-08-22T12:19:12.222Z,27.77
2018-08-22T12:21:41.339Z,27.84
2018-08-22T12:24:09.741Z,27.87
2018-08-22T12:26:38.056Z,27.96
2018-08-22T12:29:06.471Z,28.00
2018-08-22T12:31:35.226Z,28.04
2018-08-22T12:34:03.556Z,28.01
2018-08-22T12:36:31.953Z,28.00
2018-08-22T12:39:00.399Z,28.04
2018-08-22T12:41:28.924Z,28.08
2018-08-22T12:43:57.436Z,28.09
2018-08-22T12:46:25.865Z,28.17
2018-08-22T12:48:54.161Z,28.22
2018-08-22T12:51:22.505Z,28.27
2018-08-22T12:53:50.830Z,28.26
2018-08-22T12:56:19.167Z,28.24
2018-08-22T12:58:47.475Z,28.27
2018-08-22T13:01:15.823Z,28.28
2018-08-22T13:03:44.124Z,28.27
2018-08-22T13:06:12.431Z,28.28
2018-08-22T13:08:40.766Z,28.29
2018-08-22T13:11:09.181Z,28.33
2018-08-22T13:13:37.640Z,28.39
2018-08-22T13:16:05.949Z,28.37
2018-08-22T13:18:34.291Z,28.42
2018-08-22T13:21:02.638Z,28.39
2018-08-22T13:23:30.960Z,28.36
2018-08-22T13:25:59.393Z,28.37
2018-08-22T13:28:27.757Z,28.42
2018-08-22T13:31:02.610Z,28.43
2018-08-22T13:33:30.922Z,28.44
2018-08-22T13:35:59.267Z,28.40
2018-08-22T13:38:27.745Z,28.35
2018-08-22T13:40:56.147Z,28.37
2018-08-22T13:43:24.676Z,28.40
2018-08-22T13:45:53.000Z,28.42
2018-08-22T13:48:21.342Z,28.52
2018-08-22T13:50:49.780Z,28.51
2018-08-22T13:53:18.061Z,28.56
2018-08-22T13:55:46.417Z,28.61
2018-08-22T13:58:14.805Z,28.64
2018-08-22T14:00:43.150Z,28.56
2018-08-22T14:03:11.529Z,28.48
2018-08-22T14:05:39.885Z,28.42
2018-08-22T14:08:08.237Z,28.38
2018-08-22T14:10:36.681Z,28.33
2018-08-22T14:13:05.000Z,28.34
2018-08-22T14:15:33.313Z,28.39
2018-08-22T14:18:01.666Z,28.41
2018-08-22T14:20:30.100Z,28.39
2018-08-22T14:22:58.441Z,28.41
2018-08-22T14:25:27.012Z,28.44
2018-08-22T14:27:55.372Z,28.48
2018-08-22T14:30:23.680Z,28.47
2018-08-22T14:32:52.082Z,28.46
2018-08-22T14:35:20.411Z,28.43
2018-08-22T14:37:48.879Z,28.44
2018-08-22T14:40:17.249Z,28.44
2018-08-22T14:42:45.563Z,28.42
2018-08-22T14:45:14.122Z,28.38
2018-08-22T14:47:42.501Z,28.42
2018-08-22T14:50:10.853Z,28.45
2018-08-22T14:52:39.227Z,28.46
2018-08-22T14:55:07.589Z,28.47
2018-08-22T14:57:36.041Z,28.56
2018-08-22T15:00:04.415Z,28.60
2018-08-22T15:02:32.819Z,28.58
2018-08-22T15:05:01.100Z,28.50
2018-08-22T15:07:29.422Z,28.48
2018-08-22T15:09:57.795Z,28.51
2018-08-22T15:12:26.057Z,28.50
2018-08-22T15:14:54.409Z,28.55
2018-08-22T15:17:22.762Z,28.54
2018-08-22T15:19:51.115Z,28.47
2018-08-22T15:22:19.428Z,28.44
2018-08-22T15:24:47.787Z,28.43
2018-08-22T15:27:16.093Z,28.45
2018-08-22T15:29:44.551Z,28.47
2018-08-22T15:32:12.891Z,28.46
2018-08-22T15:34:48.715Z,28.42
2018-08-22T15:37:17.173Z,28.42
2018-08-22T15:39:45.512Z,28.44
2018-08-22T15:42:13.848Z,28.43
2018-08-22T15:44:42.280Z,28.44
2018-08-22T15:47:10.900Z,28.43
2018-08-22T15:49:39.237Z,28.42
2018-08-22T15:52:07.577Z,28.37
2018-08-22T15:54:35.921Z,28.35
2018-08-22T15:57:04.266Z,28.34
2018-08-22T15:59:32.647Z,28.32
2018-08-22T16:02:00.981Z,28.37
2018-08-22T16:04:30.008Z,28.31
2018-08-22T16:07:02.526Z,28.28
2018-08-22T16:09:32.106Z,28.29
2018-08-22T16:12:00.612Z,28.33
2018-08-22T16:14:29.019Z,28.30
2018-08-22T16:16:57.616Z,28.30
2018-08-22T16:19:25.946Z,28.32
2018-08-22T16:21:54.313Z,28.26
2018-08-22T16:24:27.181Z,28.19
2018-08-22T16:26:55.519Z,28.13
2018-08-22T16:29:23.845Z,28.06
2018-08-22T16:31:52.236Z,27.96
2018-08-22T16:34:20.569Z,27.90
2018-08-22T16:36:48.893Z,27.86
2018-08-22T16:39:32.731Z,27.82
2018-08-22T16:42:01.185Z,27.82
2018-08-22T16:44:29.498Z,27.80
2018-08-22T16:46:57.877Z,27.78
2018-08-22T16:49:26.185Z,27.73
2018-08-22T16:51:54.562Z,27.72
2018-08-22T16:54:22.932Z,27.71
2018-08-22T16:56:51.311Z,27.65
2018-08-22T16:59:21.381Z,27.63
2018-08-22T17:01:50.958Z,27.60
2018-08-22T17:04:19.658Z,27.54
2018-08-22T17:06:48.262Z,27.50
2018-08-22T17:09:16.636Z,27.43
2018-08-22T17:11:45.102Z,27.35
2018-08-22T17:14:13.495Z,27.31
2018-08-22T17:16:41.824Z,27.27
2018-08-22T17:19:10.133Z,27.23
2018-08-22T17:21:38.470Z,27.18
2018-08-22T17:24:06.975Z,27.11
2018-08-22T17:26:35.328Z,27.06
2018-08-22T17:29:03.702Z,27.01
2018-08-22T17:31:32.037Z,26.92
2018-08-22T17:34:01.612Z,26.88
2018-08-22T17:36:30.067Z,26.82
2018-08-22T17:38:59.542Z,26.77
2018-08-22T17:41:28.983Z,26.72
2018-08-22T17:44:19.326Z,26.66
2018-08-22T17:46:50.305Z,26.57
2018-08-22T17:49:18.737Z,26.52
2018-08-22T17:51:58.981Z,26.49
2018-08-22T17:54:27.648Z,26.42
2018-08-22T17:57:08.634Z,26.37
2018-08-22T17:59:37.040Z,26.34
2018-08-22T18:02:05.381Z,26.29
2018-08-22T18:04:45.736Z,26.26
2018-08-22T18:07:14.514Z,26.18
2018-08-22T18:09:42.884Z,26.10
2018-08-22T18:12:11.216Z,26.01
2018-08-22T18:14:39.949Z,25.94
2018-08-22T18:17:08.378Z,25.89
2018-08-22T18:19:38.564Z,25.86
2018-08-22T18:22:07.318Z,25.81
2018-08-22T18:24:41.141Z,25.74
2018-08-22T18:27:09.888Z,25.68
2018-08-22T18:29:41.033Z,25.63
2018-08-22T18:32:09.448Z,25.58
2018-08-22T18:34:50.811Z,25.57
2018-08-22T18:37:19.169Z,25.54
2018-08-22T18:39:47.570Z,25.49
2018-08-22T18:42:16.199Z,25.46
2018-08-22T18:44:44.587Z,25.43
2018-08-22T18:47:13.033Z,25.38
2018-08-22T18:49:41.617Z,25.34
2018-08-22T18:52:09.958Z,25.31
2018-08-22T18:54:38.281Z,25.27
2018-08-22T18:57:06.630Z,25.22
2018-08-22T18:59:34.984Z,25.18
2018-08-22T19:02:03.349Z,25.12
2018-08-22T19:04:31.687Z,25.06
2018-08-22T19:07:00.018Z,25.02
2018-08-22T19:09:28.382Z,25.00
2018-08-22T19:11:56.729Z,24.96
2018-08-22T19:14:37.394Z,24.95
2018-08-22T19:17:05.806Z,24.94
2018-08-22T19:19:44.827Z,24.90
2018-08-22T19:22:15.208Z,24.85
2018-08-22T19:24:57.878Z,24.82
2018-08-22T19:27:26.294Z,24.77
2018-08-22T19:29:54.708Z,24.69
2018-08-22T19:32:23.028Z,24.62
2018-08-22T19:34:55.198Z,24.57
2018-08-22T19:37:24.328Z,24.52
2018-08-22T19:40:09.311Z,24.45
2018-08-22T19:42:39.131Z,24.41
2018-08-22T19:45:09.652Z,24.38
2018-08-22T19:47:39.022Z,24.36
2018-08-22T19:50:08.674Z,24.33
2018-08-22T19:52:37.048Z,24.28
2018-08-22T19:55:06.454Z,24.22
2018-08-22T19:57:36.130Z,24.18
2018-08-22T20:00:06.261Z,24.14
2018-08-22T20:02:35.550Z,24.11
2018-08-22T20:05:04.054Z,24.07
2018-08-22T20:07:32.397Z,24.04
2018-08-22T20:10:00.723Z,24.01
2018-08-22T20:12:40.491Z,23.99
2018-08-22T20:15:09.197Z,23.95
2018-08-22T20:18:11.803Z,23.91
2018-08-22T20:20:40.243Z,23.86
2018-08-22T20:23:08.701Z,23.80
2018-08-22T20:25:37.043Z,23.77
2018-08-22T20:28:05.386Z,23.72
2018-08-22T20:30:33.813Z,23.68
2018-08-22T20:33:07.185Z,23.65
2018-08-22T20:35:38.741Z,23.62
2018-08-22T20:38:08.356Z,23.60
2018-08-22T20:40:36.743Z,23.57
2018-08-22T20:43:05.579Z,23.53
2018-08-22T20:45:36.198Z,23.51
2018-08-22T20:48:10.622Z,23.48
2018-08-22T20:50:41.344Z,23.45
2018-08-22T20:53:11.353Z,23.41
2018-08-22T20:55:39.736Z,23.37
2018-08-22T20:58:09.672Z,23.33
2018-08-22T21:00:38.367Z,23.29
2018-08-22T21:03:06.745Z,23.23
2018-08-22T21:05:35.057Z,23.17
2018-08-22T21:08:03.466Z,23.12
2018-08-22T21:10:31.763Z,23.06
2018-08-22T21:13:00.106Z,23.02
2018-08-22T21:15:28.428Z,22.99
2018-08-22T21:17:56.765Z,22.95
2018-08-22T21:20:25.883Z,22.91
2018-08-22T21:22:55.775Z,22.87
2018-08-22T21:25:24.077Z,22.85
2018-08-22T21:27:52.925Z,22.82
2018-08-22T21:30:21.285Z,22.81
2018-08-22T21:32:50.108Z,22.81
2018-08-22T21:35:25.714Z,22.80
2018-08-22T21:37:58.021Z,22.79
2018-08-22T21:40:26.362Z,22.76
2018-08-22T21:42:54.693Z,22.71
2018-08-22T21:45:23.140Z,22.66
2018-08-22T21:48:04.043Z,22.60
2018-08-22T21:50:32.430Z,22.55
2018-08-22T21:53:02.918Z,22.52
2018-08-22T21:55:37.256Z,22.50
2018-08-22T21:58:06.473Z,22.49
2018-08-22T22:00:34.984Z,22.47
2018-08-22T22:03:03.400Z,22.41
2018-08-22T22:05:43.381Z,22.40
2018-08-22T22:08:11.697Z,22.39
2018-08-22T22:10:40.294Z,22.36
2018-08-22T22:13:09.348Z,22.34
2018-08-22T22:15:42.993Z,22.31
2018-08-22T22:18:11.604Z,22.29
2018-08-22T22:20:40.194Z,22.25
2018-08-22T22:23:08.600Z,22.21
2018-08-22T22:25:37.074Z,22.17
2018-08-22T22:28:05.459Z,22.13
2018-08-22T22:30:33.803Z,22.09
2018-08-22T22:33:02.488Z,22.04
2018-08-22T22:35:36.791Z,22.01
2018-08-22T22:38:11.413Z,22.00
2018-08-22T22:40:40.143Z,21.94
2018-08-22T22:43:12.565Z,21.90
2018-08-22T22:45:41.013Z,21.86
2018-08-22T22:48:09.344Z,21.85
2018-08-22T22:50:37.669Z,21.83
2018-08-22T22:53:06.605Z,21.82
2018-08-22T22:55:34.981Z,21.80
2018-08-22T22:58:03.712Z,21.80
2018-08-22T23:00:32.038Z,21.80
2018-08-22T23:03:06.388Z,21.82
2018-08-22T23:05:34.746Z,21.85
2018-08-22T23:08:03.514Z,21.87
2018-08-22T23:10:31.842Z,21.90
2018-08-22T23:13:00.191Z,21.94
2018-08-22T23:15:29.806Z,21.97
2018-08-22T23:17:59.445Z,21.97
2018-08-22T23:20:44.237Z,21.98
2018-08-22T23:23:26.577Z,21.99
2018-08-22T23:25:56.106Z,21.99
2018-08-22T23:28:24.457Z,22.01
2018-08-22T23:30:52.781Z,21.99
2018-08-22T23:33:21.177Z,21.97
2018-08-22T23:35:49.475Z,21.93
2018-08-22T23:38:26.984Z,21.91
2018-08-22T23:40:55.313Z,21.86
2018-08-22T23:43:23.663Z,21.82
2018-08-22T23:45:57.814Z,21.79
2018-08-22T23:48:31.555Z,21.76
2018-08-22T23:51:01.433Z,21.75
2018-08-22T23:53:32.776Z,21.72
2018-08-22T23:56:16.261Z,21.66
2018-08-22T23:58:45.654Z,21.62
